Last 24 Hours

Thomas Mountain

10 Minute Data | America/Los_Angeles
as of 8/31/26 9:38 AM PDT
Date & Time Temp (°F) Dew Pt (°F) RH (%) Wind Spd (mph) Wind Dir (°) Wind Gust (mph) Wind Gst Dir (°) Daily Max Temp (°F) Daily Min Temp (°F)
8/31/26 - 0930 71.6 37.4 29 8.4 WSW | 240 13.2 WSW | 245 72.2 65.4
8/31/26 - 0920 70.5 39.2 32 8.0 WSW | 250 17.0 WSW | 252 70.9 65.4
8/31/26 - 0910 70.1 40.2 34 10.2 WSW | 249 17.5 WSW | 251 70.8 65.4
8/31/26 - 0900 70.2 35.5 28 7.9 WSW | 248 15.2 SW | 235 70.8 65.4
8/31/26 - 0850 69.7 34.0 27 6.5 W | 261 12.4 W | 266 69.9 65.4
8/31/26 - 0840 69.4 33.0 26 5.3 WSW | 242 10.6 WSW | 255 69.8 65.4
8/31/26 - 0830 69.5 36.2 30 5.8 WSW | 254 9.6 W | 266 69.7 65.4
8/31/26 - 0820 69.3 39.5 34 6.3 WSW | 254 11.2 WSW | 244 69.7 65.4
8/31/26 - 0810 68.8 40.3 35 7.9 WNW | 283 15.2 WNW | 290 69.0 65.4
8/31/26 - 0800 68.9 38.1 32 5.4 W | 274 10.5 W | 275 69.0 65.4
8/31/26 - 0750 68.5 36.5 31 6.9 WNW | 282 12.2 WNW | 283 68.7 65.4
8/31/26 - 0740 68.4 35.4 30 8.6 W | 281 14.4 W | 280 68.5 65.4
8/31/26 - 0730 68.2 31.6 26 6.8 WNW | 287 11.8 WNW | 288 68.4 65.4
8/31/26 - 0720 68.0 29.4 24 6.5 WNW | 294 14.1 WNW | 300 68.4 65.4
8/31/26 - 0710 67.8 27.9 22 6.4 WNW | 296 10.4 WNW | 294 68.4 65.4
8/31/26 - 0700 67.4 24.8 20 6.8 WNW | 294 13.2 NW | 314 68.4 65.4
8/31/26 - 0650 66.9 24.5 20 6.7 WNW | 294 12.4 NW | 322 68.4 65.4
8/31/26 - 0640 66.9 24.8 20 6.2 WNW | 290 12.9 W | 269 68.4 65.4
8/31/26 - 0630 66.8 27.3 22 6.3 WNW | 292 10.4 WNW | 293 68.4 65.4
8/31/26 - 0620 66.8 27.3 22 5.1 NW | 304 9.8 WNW | 294 68.4 65.4
8/31/26 - 0610 67.0 27.3 22 6.5 WNW | 295 12.4 WNW | 286 68.4 65.4
8/31/26 - 0600 67.0 27.4 22 6.6 WNW | 290 11.6 W | 275 68.4 65.4
8/31/26 - 0550 67.2 28.3 23 6.6 WNW | 292 13.1 WSW | 258 68.4 65.4
8/31/26 - 0540 67.1 26.9 22 6.7 WNW | 294 10.5 W | 264 68.4 65.4
8/31/26 - 0530 67.0 24.6 20 7.1 WNW | 299 17.0 WNW | 294 68.4 65.4
8/31/26 - 0520 66.9 23.9 19 7.4 WNW | 291 12.7 WNW | 303 68.4 65.4
8/31/26 - 0510 66.6 20.6 17 6.0 WNW | 297 10.8 WNW | 292 68.4 65.4
8/31/26 - 0500 66.6 23.2 19 5.7 WNW | 294 9.9 NNW | 331 68.4 65.4
8/31/26 - 0450 66.6 21.0 17 6.1 NW | 306 13.2 WNW | 299 68.4 65.4
8/31/26 - 0440 67.3 24.9 20 8.4 W | 279 14.6 W | 276 68.4 65.4
8/31/26 - 0430 67.8 31.9 26 10.2 WNW | 284 16.5 W | 281 68.4 65.4
8/31/26 - 0420 67.4 32.0 27 10.1 WNW | 284 17.5 WNW | 289 68.4 65.4
8/31/26 - 0410 67.3 31.8 27 8.8 WNW | 288 14.3 WNW | 298 68.4 65.4
8/31/26 - 0400 67.0 32.2 27 7.4 W | 281 13.4 WNW | 288 68.4 65.4
8/31/26 - 0350 67.7 33.6 28 10.0 W | 280 18.3 WNW | 290 68.4 65.4
8/31/26 - 0340 67.6 34.1 29 10.2 W | 276 16.2 W | 272 68.4 65.4
8/31/26 - 0330 67.7 34.5 29 9.6 W | 277 14.4 W | 277 68.4 65.4
8/31/26 - 0320 67.7 34.7 29 8.3 W | 280 15.0 W | 270 68.4 65.4
8/31/26 - 0310 67.8 34.9 30 9.2 WNW | 283 15.4 W | 266 68.4 65.4
8/31/26 - 0300 67.6 35.2 30 7.0 WNW | 282 12.2 WNW | 282 68.4 65.4
8/31/26 - 0250 67.6 35.5 30 6.0 WNW | 287 11.1 WNW | 297 68.4 65.4
8/31/26 - 0240 68.1 36.8 32 6.8 W | 281 14.3 W | 280 68.4 65.4
8/31/26 - 0230 67.9 38.3 34 7.4 WNW | 289 14.8 W | 277 68.2 65.4
8/31/26 - 0220 67.7 36.6 32 5.9 WNW | 298 12.0 WNW | 302 68.1 65.4
8/31/26 - 0210 67.3 36.1 32 5.5 WNW | 289 12.7 W | 277 68.1 65.4
8/31/26 - 0200 67.4 36.5 32 3.8 WNW | 292 9.4 W | 278 68.1 65.4
8/31/26 - 0150 67.3 36.3 32 3.8 NW | 312 8.3 NW | 305 68.1 65.4
8/31/26 - 0140 67.2 37.4 33 4.3 WNW | 303 8.7 W | 281 68.1 65.4
8/31/26 - 0130 66.2 40.1 38 4.9 NW | 325 9.0 WNW | 301 68.1 65.4
8/31/26 - 0120 66.9 40.5 38 4.8 NNW | 344 8.4 NW | 311 68.1 65.8
8/31/26 - 0110 68.0 38.4 34 4.7 NW | 319 8.7 WNW | 283 68.1 67.9
8/31/26 - 0100 68.1 38.4 34 4.9 NW | 315 10.1 W | 280 84.1 67.6
8/31/26 - 0050 68.1 38.7 34 4.5 WNW | 297 8.7 WNW | 300 84.1 67.6
8/31/26 - 0040 67.8 39.5 35 4.4 WNW | 297 9.0 WNW | 291 84.1 67.6
8/31/26 - 0030 67.9 39.6 35 4.0 NW | 320 6.9 NW | 312 84.1 67.7
8/31/26 - 0020 68.2 39.3 35 5.3 NW | 312 9.4 WNW | 303 84.1 67.7
8/31/26 - 0010 68.3 39.4 35 5.1 WNW | 296 8.8 NW | 304 84.1 67.7
8/31/26 - 0000 68.2 40.6 36 6.5 WNW | 292 13.4 WNW | 284 84.1 67.7
8/30/26 - 2350 68.1 41.4 38 5.5 WNW | 287 9.0 WNW | 297 84.1 67.7
8/30/26 - 2340 68.0 41.5 38 4.3 WNW | 296 7.5 WNW | 293 84.1 67.7
8/30/26 - 2330 67.8 42.0 39 4.1 NW | 304 7.2 WNW | 295 84.1 67.7
8/30/26 - 2320 67.8 42.7 40 4.3 WNW | 302 10.4 NW | 306 84.1 67.7
8/30/26 - 2310 67.9 44.7 43 5.1 WNW | 293 10.0 W | 268 84.1 67.7
8/30/26 - 2300 67.8 48.7 50 5.6 WNW | 282 9.2 WNW | 291 84.1 67.7
8/30/26 - 2250 68.0 50.3 53 6.2 W | 277 10.0 W | 270 84.1 67.8
8/30/26 - 2240 68.2 48.9 50 5.4 WNW | 282 9.6 W | 278 84.1 68.0
8/30/26 - 2230 68.3 48.0 48 3.5 W | 279 7.0 W | 276 84.1 68.3
8/30/26 - 2220 69.0 46.8 45 4.2 W | 273 7.7 WNW | 283 84.1 68.3
8/30/26 - 2210 69.2 45.4 42 5.0 WNW | 286 8.7 WNW | 297 84.1 68.3
8/30/26 - 2200 68.8 47.5 46 4.8 WNW | 291 8.0 WNW | 293 84.1 68.3
8/30/26 - 2150 68.6 49.9 51 4.0 WNW | 295 6.2 WNW | 294 84.1 68.3
8/30/26 - 2140 68.6 50.0 51 5.2 WNW | 303 10.4 WNW | 292 84.1 68.3
8/30/26 - 2130 68.6 48.1 48 5.0 NW | 304 9.3 WNW | 291 84.1 68.3
8/30/26 - 2120 68.8 45.8 44 4.6 NW | 306 7.0 WNW | 294 84.1 68.3
8/30/26 - 2110 69.2 44.5 41 4.8 NW | 308 9.4 NNW | 332 84.1 68.3
8/30/26 - 2100 69.4 41.6 36 6.8 NW | 308 12.2 WNW | 290 84.1 68.3
8/30/26 - 2050 69.2 38.7 33 6.3 NW | 306 11.4 WNW | 303 84.1 68.3
8/30/26 - 2040 69.3 37.1 31 6.0 NW | 320 11.8 NW | 308 84.1 68.3
8/30/26 - 2030 69.5 37.7 31 6.1 NW | 318 13.4 NNW | 346 84.1 68.3
8/30/26 - 2020 69.5 38.7 32 4.4 WNW | 298 8.6 WNW | 302 84.1 68.3
8/30/26 - 2010 69.7 39.5 33 4.7 WNW | 303 8.8 WNW | 294 84.1 68.3
8/30/26 - 2000 69.8 40.2 34 5.7 WNW | 299 11.6 WNW | 293 84.1 68.3
8/30/26 - 1950 69.9 40.8 35 5.7 NW | 306 10.3 W | 262 84.1 68.3
8/30/26 - 1940 70.2 41.3 35 5.0 WNW | 298 9.1 WNW | 291 84.1 68.3
8/30/26 - 1930 70.8 41.1 34 6.8 WNW | 283 10.4 WNW | 282 84.1 68.3
8/30/26 - 1920 71.2 40.9 33 6.9 W | 271 11.6 W | 276 84.1 68.3
8/30/26 - 1910 72.0 40.2 32 8.6 WSW | 256 15.5 W | 265 84.1 68.3
8/30/26 - 1900 72.8 40.8 31 10.5 WSW | 252 15.6 WSW | 256 84.1 68.3
8/30/26 - 1850 73.6 41.8 32 10.4 WSW | 251 17.4 WSW | 254 84.1 68.3
8/30/26 - 1840 74.1 42.5 32 11.9 WSW | 249 18.3 WSW | 238 84.1 68.3
8/30/26 - 1830 74.7 42.9 32 13.1 WSW | 254 20.8 WSW | 258 84.1 68.3
8/30/26 - 1820 75.4 43.5 32 13.6 WSW | 248 20.4 WSW | 253 84.1 68.3
8/30/26 - 1810 75.7 44.5 33 13.8 WSW | 250 22.4 W | 261 84.1 68.3
8/30/26 - 1800 76.2 44.8 33 13.8 WSW | 246 21.3 WSW | 243 84.1 68.3
8/30/26 - 1750 76.7 43.5 31 14.4 WSW | 249 21.5 WSW | 249 84.1 68.3
8/30/26 - 1740 77.2 43.4 30 12.6 WSW | 251 20.4 WSW | 240 84.1 68.3
8/30/26 - 1730 77.3 43.6 30 13.4 WSW | 252 21.3 WSW | 249 84.1 68.3
8/30/26 - 1720 77.9 44.2 30 12.8 WSW | 250 20.7 WSW | 255 84.1 68.3
8/30/26 - 1710 78.4 45.4 31 12.6 WSW | 251 19.8 WSW | 246 84.1 68.3
8/30/26 - 1700 78.2 46.2 32 13.3 W | 259 20.5 WSW | 252 84.1 68.3
8/30/26 - 1650 78.8 46.8 32 14.1 WSW | 245 21.6 WSW | 255 84.1 68.3
8/30/26 - 1640 79.4 47.0 32 14.0 WSW | 247 22.9 WSW | 253 84.1 68.3
8/30/26 - 1630 79.3 47.0 32 12.8 WSW | 250 19.9 SW | 235 84.1 68.3
8/30/26 - 1620 79.2 46.5 32 12.8 WSW | 255 22.9 WSW | 247 84.1 68.3
8/30/26 - 1610 79.6 46.4 31 12.0 WSW | 258 22.5 WSW | 247 84.1 68.3
8/30/26 - 1600 80.2 46.5 31 13.4 WSW | 256 23.7 WSW | 246 84.1 68.3
8/30/26 - 1550 80.9 47.1 31 14.7 WSW | 241 22.7 WSW | 248 84.1 68.3
8/30/26 - 1540 81.1 47.6 31 13.9 WSW | 246 23.0 W | 265 84.1 68.3
8/30/26 - 1530 80.4 47.8 32 14.4 WSW | 241 23.8 WSW | 244 84.1 68.3
8/30/26 - 1520 80.6 48.4 32 13.9 WSW | 249 23.6 WSW | 245 84.1 68.3
8/30/26 - 1510 80.8 48.9 33 14.9 WSW | 242 21.7 WSW | 246 84.1 68.3
8/30/26 - 1500 82.1 49.2 32 14.6 WSW | 242 20.8 WSW | 242 84.1 68.3
8/30/26 - 1450 81.2 49.4 33 13.2 WSW | 246 20.6 SW | 236 84.1 68.3
8/30/26 - 1440 82.9 49.8 32 13.7 WSW | 238 23.7 WSW | 249 84.1 68.3
8/30/26 - 1430 82.2 49.1 32 14.1 WSW | 244 22.1 WSW | 238 84.1 68.3
8/30/26 - 1420 83.0 48.8 30 13.1 SW | 231 19.6 SW | 226 84.1 68.3
8/30/26 - 1410 82.3 48.0 30 14.1 SW | 236 24.8 WSW | 248 84.0 68.3
8/30/26 - 1400 82.3 47.4 30 11.5 SW | 234 20.8 SW | 220 84.0 68.3
8/30/26 - 1350 81.4 46.7 30 12.9 WSW | 238 25.6 W | 267 82.4 68.3
8/30/26 - 1340 81.2 46.1 29 12.6 WSW | 248 21.0 WSW | 257 82.1 68.3
8/30/26 - 1330 80.6 45.8 29 10.3 WSW | 254 19.7 WSW | 248 81.7 68.3
8/30/26 - 1320 80.3 46.0 30 12.4 WSW | 254 23.4 WSW | 242 81.7 68.3
8/30/26 - 1310 80.5 45.7 29 12.5 WSW | 250 20.9 WSW | 244 81.7 68.3
8/30/26 - 1300 80.1 45.4 29 12.8 WSW | 252 20.7 WSW | 245 81.6 68.3
8/30/26 - 1250 79.8 45.0 29 12.3 WSW | 242 20.8 WSW | 248 81.6 68.3
8/30/26 - 1240 79.5 44.9 29 10.4 WSW | 248 21.0 WSW | 253 81.6 68.3
8/30/26 - 1230 79.6 44.7 29 12.0 WSW | 239 17.3 SW | 220 81.6 68.3
8/30/26 - 1220 79.8 44.8 29 12.5 WSW | 244 20.0 SW | 234 81.6 68.3
8/30/26 - 1210 80.5 44.6 28 11.3 SW | 228 20.0 WSW | 248 81.6 68.3
8/30/26 - 1200 80.1 44.4 28 12.0 SW | 230 18.4 SW | 215 81.1 68.3
8/30/26 - 1150 79.4 44.7 29 12.7 WSW | 246 19.4 WSW | 249 81.0 68.3
8/30/26 - 1140 79.3 44.8 30 12.9 SW | 223 20.1 WSW | 254 81.0 68.3
8/30/26 - 1130 80.1 45.2 29 12.4 SW | 229 20.4 SW | 220 81.0 68.3
8/30/26 - 1120 79.8 45.0 29 13.5 WSW | 237 21.0 WSW | 246 81.0 68.3
8/30/26 - 1110 80.1 44.8 29 12.6 SW | 231 20.3 SSW | 208 81.0 68.3
8/30/26 - 1100 79.6 44.2 29 12.5 SW | 225 21.6 SW | 222 80.4 68.3
8/30/26 - 1050 79.5 43.7 28 12.5 SW | 218 20.2 SW | 225 80.1 68.3
8/30/26 - 1040 77.6 44.9 31 10.8 WSW | 240 17.5 WSW | 245 78.9 68.3
8/30/26 - 1030 78.0 45.4 32 10.5 WSW | 252 18.4 SW | 236 78.6 68.3
8/30/26 - 1020 77.8 45.6 32 7.4 W | 262 14.3 WNW | 299 78.5 68.3
8/30/26 - 1010 77.3 45.4 32 9.4 WSW | 245 15.0 WSW | 249 78.0 68.3
8/30/26 - 1000 77.1 44.7 32 10.6 WSW | 242 18.3 WSW | 253 77.7 68.3
8/30/26 - 0950 76.7 44.6 32 9.0 WSW | 244 17.0 WSW | 247 77.5 68.3
8/30/26 - 0940 76.4 44.9 33 10.0 WSW | 242 17.1 WSW | 246 77.0 68.3
8/30/26 - 0930 76.2 45.6 34 9.0 WSW | 239 13.6 W | 261 76.6 68.3
Max 83.0 50.3 53 14.9 - 25.6 - 84.1 68.3
Avg 72.6 40.3 32 8.7 - 15.0 - - -
Min 66.2 20.6 17 3.5 - 6.2 - 68.1 65.4